San Francisco, California
Traffic Map
Current Weather Conditions
San Francisco, California
Broken Clouds
Broken Clouds
64°
Feels Like: 64°
Wind Chill: 64° Ceiling: 18000
Heat Index: 64° Visibility: 10mi
Dew Point: 60° Wind: 10mph
Humidity: 87% Direction: 290° (WNW)
Pressure: 29.91in Gusts: 0mph
Raw Report DataKSFO 300556Z 29009KT 10SM FEW008 BKN180 18/16 A2991 RMK AO2 SLP129 T01780156 10211 20172 50004 $
Traffic Incident Summary
Active as of:
Severity:
Category:
InformationThere was an issue retrieving the traffic information for this location. Please try a different location or try again shortly.
Advertisements
Track Severe Weather on mobile